Washington Dulles International Airport
KIAD : rendu visible

Aérodrome :











RETROUVEZ-NOUS SUR...

 
LOGIN :

S'inscrire | Disclaimer

   EN    FR    IT 

 









Légende :    VFR   VFR Marginal   IFR   IFR Intensif   IFR Très Intensif
Visi : 
Plafond : 
>= 8 km
>= 3000ft
5 à 8 km
1000 à 3000 ft
1500m à 5 km
500 à 1000 ft
800 à 1500m
200 à 500 ft
< 800m
< 200 ft
Symboles :   Orages  Brouillard  Fortes neiges  Fortes précipitations  Vent > 20 kt






- Altitude de l'aérodrome : 312 ft
- Code IATA : IAD


KIAD - Washington Dulles International

DERNIER METAR :
  • 172352Z 34005KT 10SM CLR M01/M13 A3072 RMK AO2 SLP406 T10061128 10022 21006 53009

METARs EXPIRÉS :
  • 172252Z 35008KT 10SM FEW150 BKN250 00/M13 A3070 RMK AO2 SLP400 T00001128
  • 172152Z 33008KT 10SM SCT140 BKN250 01/M13 A3070 RMK AO2 SLP399 T00061128

TAF KIAD
Valide du 18 à 00h jusqu'au 19 à 06h UTC


172330Z 1800/1906 VRB03KT P6SM SCT250
FM181200 15005KT 5SM -SN OVC060
FM181500 17009KT 5SM -SNPL BKN070
FM181800 17011G18KT 5SM -FZRAPL OVC050
FM182000 18012G19KT 3SM -FZRA OVC025
FM182100 18012G19KT 3SM -RA OVC015
FM182300 20012KT 3SM -RA OVC020
FM190000 20012KT P6SM BKN070



MET'MAP, la Météo Aéronautique d'un coup d'oeil ! - Copyright ORBIFLY Décembre 2007 - Disclaimer

ORBIFLY MET'MAP TEAM :

Programmation & Développement : Alexandra Zaïnal
Sur une idée originale de : Baudouin d'Aumeries
Assistance à la programmation : Marc-Olivier Méhu
Soutien technique & logistique : Manuel Goepfert

Contact : metmap@orbifly.com




SOURCES & CREDITS :

   NOAA       Earth
Advisory